sensor_id;sensor_type;location;lat;lon;timestamp;temperature;humidity
8965;DHT22;4517;49.020;12.066;2023-03-03T00:01:26;1.80;99.90
8965;DHT22;4517;49.020;12.066;2023-03-03T00:03:53;1.90;99.90
8965;DHT22;4517;49.020;12.066;2023-03-03T00:06:19;2.10;99.90
8965;DHT22;4517;49.020;12.066;2023-03-03T00:08:46;2.20;99.90
8965;DHT22;4517;49.020;12.066;2023-03-03T00:11:12;2.20;99.90
8965;DHT22;4517;49.020;12.066;2023-03-03T00:13:49;2.20;99.90
8965;DHT22;4517;49.020;12.066;2023-03-03T00:16:38;2.20;99.90
8965;DHT22;4517;49.020;12.066;2023-03-03T00:19:16;1.90;99.90
8965;DHT22;4517;49.020;12.066;2023-03-03T00:21:45;1.70;99.90
8965;DHT22;4517;49.020;12.066;2023-03-03T00:24:18;1.70;99.90
8965;DHT22;4517;49.020;12.066;2023-03-03T00:26:46;1.60;99.90
8965;DHT22;4517;49.020;12.066;2023-03-03T00:29:34;1.70;99.90
8965;DHT22;4517;49.020;12.066;2023-03-03T00:32:22;1.80;99.90
8965;DHT22;4517;49.020;12.066;2023-03-03T00:34:49;1.70;99.90
8965;DHT22;4517;49.020;12.066;2023-03-03T00:37:25;1.50;99.90
8965;DHT22;4517;49.020;12.066;2023-03-03T00:39:52;1.50;99.90
8965;DHT22;4517;49.020;12.066;2023-03-03T00:42:18;1.30;99.90
8965;DHT22;4517;49.020;12.066;2023-03-03T00:47:17;1.20;99.90
8965;DHT22;4517;49.020;12.066;2023-03-03T00:49:43;1.00;99.90
8965;DHT22;4517;49.020;12.066;2023-03-03T00:52:14;0.90;99.90
8965;DHT22;4517;49.020;12.066;2023-03-03T00:54:40;0.70;99.90
8965;DHT22;4517;49.020;12.066;2023-03-03T00:57:06;0.50;99.90
8965;DHT22;4517;49.020;12.066;2023-03-03T00:59:31;0.30;99.90
8965;DHT22;4517;49.020;12.066;2023-03-03T01:01:57;0.20;99.90
8965;DHT22;4517;49.020;12.066;2023-03-03T01:04:23;0.10;99.90
8965;DHT22;4517;49.020;12.066;2023-03-03T01:06:48;0.00;99.90
8965;DHT22;4517;49.020;12.066;2023-03-03T01:09:14;0.00;99.90
8965;DHT22;4517;49.020;12.066;2023-03-03T01:11:39;0.00;99.90
8965;DHT22;4517;49.020;12.066;2023-03-03T01:14:05;-0.10;99.90
8965;DHT22;4517;49.020;12.066;2023-03-03T01:16:31;-0.10;99.90
8965;DHT22;4517;49.020;12.066;2023-03-03T01:18:58;0.00;99.90
8965;DHT22;4517;49.020;12.066;2023-03-03T01:21:23;0.00;99.90
8965;DHT22;4517;49.020;12.066;2023-03-03T01:23:49;0.10;99.90
8965;DHT22;4517;49.020;12.066;2023-03-03T01:26:14;0.30;99.90
8965;DHT22;4517;49.020;12.066;2023-03-03T01:28:40;0.40;99.90
8965;DHT22;4517;49.020;12.066;2023-03-03T01:31:06;0.30;99.90
8965;DHT22;4517;49.020;12.066;2023-03-03T01:33:32;0.40;99.90
8965;DHT22;4517;49.020;12.066;2023-03-03T01:35:58;0.40;99.90
8965;DHT22;4517;49.020;12.066;2023-03-03T01:38:24;0.40;99.90
8965;DHT22;4517;49.020;12.066;2023-03-03T01:40:55;0.30;99.90
8965;DHT22;4517;49.020;12.066;2023-03-03T01:43:21;0.20;99.90
8965;DHT22;4517;49.020;12.066;2023-03-03T01:48:24;0.20;99.90
8965;DHT22;4517;49.020;12.066;2023-03-03T01:51:03;0.10;99.90
8965;DHT22;4517;49.020;12.066;2023-03-03T01:53:35;-0.10;99.90
8965;DHT22;4517;49.020;12.066;2023-03-03T01:56:02;-0.20;99.90
8965;DHT22;4517;49.020;12.066;2023-03-03T01:58:35;-0.40;99.90
8965;DHT22;4517;49.020;12.066;2023-03-03T02:01:04;-0.40;99.90
8965;DHT22;4517;49.020;12.066;2023-03-03T02:03:33;-0.40;99.90
8965;DHT22;4517;49.020;12.066;2023-03-03T02:06:03;0.00;99.90
8965;DHT22;4517;49.020;12.066;2023-03-03T02:08:38;-0.20;99.90
8965;DHT22;4517;49.020;12.066;2023-03-03T02:11:05;0.00;99.90
8965;DHT22;4517;49.020;12.066;2023-03-03T02:13:31;0.20;99.90
8965;DHT22;4517;49.020;12.066;2023-03-03T02:15:57;0.10;99.90
8965;DHT22;4517;49.020;12.066;2023-03-03T02:18:24;0.10;99.90
8965;DHT22;4517;49.020;12.066;2023-03-03T02:21:09;0.10;99.90
8965;DHT22;4517;49.020;12.066;2023-03-03T02:26:24;0.10;99.90
8965;DHT22;4517;49.020;12.066;2023-03-03T02:28:50;0.00;99.90
8965;DHT22;4517;49.020;12.066;2023-03-03T02:31:23;-0.10;99.90
8965;DHT22;4517;49.020;12.066;2023-03-03T02:33:51;0.00;99.90
8965;DHT22;4517;49.020;12.066;2023-03-03T02:39:08;0.20;99.90
8965;DHT22;4517;49.020;12.066;2023-03-03T02:44:36;0.10;99.90
8965;DHT22;4517;49.020;12.066;2023-03-03T02:47:02;-0.10;99.90
8965;DHT22;4517;49.020;12.066;2023-03-03T02:49:31;-0.30;99.90
8965;DHT22;4517;49.020;12.066;2023-03-03T02:51:57;-0.40;99.90
8965;DHT22;4517;49.020;12.066;2023-03-03T02:54:24;-0.50;99.90
8965;DHT22;4517;49.020;12.066;2023-03-03T02:56:50;-0.50;99.90
8965;DHT22;4517;49.020;12.066;2023-03-03T02:59:16;-0.60;99.90
8965;DHT22;4517;49.020;12.066;2023-03-03T03:01:42;-0.30;99.90
8965;DHT22;4517;49.020;12.066;2023-03-03T03:04:14;-0.50;99.90
8965;DHT22;4517;49.020;12.066;2023-03-03T03:06:40;-0.50;99.90
8965;DHT22;4517;49.020;12.066;2023-03-03T03:09:07;-0.20;99.90
8965;DHT22;4517;49.020;12.066;2023-03-03T03:11:33;0.00;99.90
8965;DHT22;4517;49.020;12.066;2023-03-03T03:14:03;-0.20;99.90
8965;DHT22;4517;49.020;12.066;2023-03-03T03:16:29;0.00;99.90
8965;DHT22;4517;49.020;12.066;2023-03-03T03:18:56;0.20;99.90
8965;DHT22;4517;49.020;12.066;2023-03-03T03:21:22;0.30;99.90
8965;DHT22;4517;49.020;12.066;2023-03-03T03:23:47;0.30;99.90
8965;DHT22;4517;49.020;12.066;2023-03-03T03:26:13;0.30;99.90
8965;DHT22;4517;49.020;12.066;2023-03-03T03:28:39;0.10;99.90
8965;DHT22;4517;49.020;12.066;2023-03-03T03:31:05;0.00;99.90
8965;DHT22;4517;49.020;12.066;2023-03-03T03:33:31;-0.10;99.90
8965;DHT22;4517;49.020;12.066;2023-03-03T03:35:57;-0.30;99.90
8965;DHT22;4517;49.020;12.066;2023-03-03T03:38:23;-0.40;99.90
8965;DHT22;4517;49.020;12.066;2023-03-03T03:40:51;-0.50;99.90
8965;DHT22;4517;49.020;12.066;2023-03-03T03:43:17;-0.50;99.90
8965;DHT22;4517;49.020;12.066;2023-03-03T03:45:43;-0.40;99.90
8965;DHT22;4517;49.020;12.066;2023-03-03T03:48:08;-0.40;99.90
8965;DHT22;4517;49.020;12.066;2023-03-03T03:50:34;-0.60;99.90
8965;DHT22;4517;49.020;12.066;2023-03-03T03:53:00;-0.70;99.90
8965;DHT22;4517;49.020;12.066;2023-03-03T03:55:25;-0.90;99.90
8965;DHT22;4517;49.020;12.066;2023-03-03T03:57:51;-1.00;99.90
8965;DHT22;4517;49.020;12.066;2023-03-03T04:00:17;-1.10;99.90
8965;DHT22;4517;49.020;12.066;2023-03-03T04:02:42;-1.10;99.90
8965;DHT22;4517;49.020;12.066;2023-03-03T04:05:08;-1.10;99.90
8965;DHT22;4517;49.020;12.066;2023-03-03T04:07:34;-1.20;99.90
8965;DHT22;4517;49.020;12.066;2023-03-03T04:09:59;-1.30;99.90
8965;DHT22;4517;49.020;12.066;2023-03-03T04:12:25;-1.10;99.90
8965;DHT22;4517;49.020;12.066;2023-03-03T04:14:51;-1.30;99.90
8965;DHT22;4517;49.020;12.066;2023-03-03T04:17:21;-1.20;99.90
8965;DHT22;4517;49.020;12.066;2023-03-03T04:19:48;-1.20;99.90
8965;DHT22;4517;49.020;12.066;2023-03-03T04:22:16;-1.40;99.90
8965;DHT22;4517;49.020;12.066;2023-03-03T04:24:42;-1.10;99.90
8965;DHT22;4517;49.020;12.066;2023-03-03T04:27:07;-0.70;99.90
8965;DHT22;4517;49.020;12.066;2023-03-03T04:29:34;-0.80;99.90
8965;DHT22;4517;49.020;12.066;2023-03-03T04:31:59;-0.80;99.90
8965;DHT22;4517;49.020;12.066;2023-03-03T04:34:25;-0.80;99.90
8965;DHT22;4517;49.020;12.066;2023-03-03T04:39:56;-0.60;99.90
8965;DHT22;4517;49.020;12.066;2023-03-03T04:42:22;-0.40;99.90
8965;DHT22;4517;49.020;12.066;2023-03-03T04:44:47;-0.50;99.90
8965;DHT22;4517;49.020;12.066;2023-03-03T04:47:13;-0.60;99.90
8965;DHT22;4517;49.020;12.066;2023-03-03T04:49:45;-0.70;99.90
8965;DHT22;4517;49.020;12.066;2023-03-03T04:52:11;-0.70;99.90
8965;DHT22;4517;49.020;12.066;2023-03-03T04:54:37;-0.70;99.90
8965;DHT22;4517;49.020;12.066;2023-03-03T04:57:02;-0.60;99.90
8965;DHT22;4517;49.020;12.066;2023-03-03T04:59:28;-0.60;99.90
8965;DHT22;4517;49.020;12.066;2023-03-03T05:01:53;-0.40;99.90
8965;DHT22;4517;49.020;12.066;2023-03-03T05:04:19;-0.30;99.90
8965;DHT22;4517;49.020;12.066;2023-03-03T05:06:44;-0.20;99.90
8965;DHT22;4517;49.020;12.066;2023-03-03T05:09:10;-0.10;99.90
8965;DHT22;4517;49.020;12.066;2023-03-03T05:11:36;-0.10;99.90
8965;DHT22;4517;49.020;12.066;2023-03-03T05:14:01;0.20;99.90
8965;DHT22;4517;49.020;12.066;2023-03-03T05:16:30;0.30;99.90
8965;DHT22;4517;49.020;12.066;2023-03-03T05:18:56;0.30;99.90
8965;DHT22;4517;49.020;12.066;2023-03-03T05:21:22;0.40;99.90
8965;DHT22;4517;49.020;12.066;2023-03-03T05:23:47;0.60;99.90
8965;DHT22;4517;49.020;12.066;2023-03-03T05:26:13;0.70;99.90
8965;DHT22;4517;49.020;12.066;2023-03-03T05:28:38;0.70;99.90
8965;DHT22;4517;49.020;12.066;2023-03-03T05:31:04;0.70;99.90
8965;DHT22;4517;49.020;12.066;2023-03-03T05:33:29;0.60;99.90
8965;DHT22;4517;49.020;12.066;2023-03-03T05:35:56;0.60;99.90
8965;DHT22;4517;49.020;12.066;2023-03-03T05:38:23;0.70;99.90
8965;DHT22;4517;49.020;12.066;2023-03-03T05:40:49;0.80;99.90
8965;DHT22;4517;49.020;12.066;2023-03-03T05:43:14;0.70;99.90
8965;DHT22;4517;49.020;12.066;2023-03-03T05:45:40;0.80;99.90
8965;DHT22;4517;49.020;12.066;2023-03-03T05:48:05;0.80;99.90
8965;DHT22;4517;49.020;12.066;2023-03-03T05:50:31;0.80;99.90
8965;DHT22;4517;49.020;12.066;2023-03-03T05:52:57;0.80;99.90
8965;DHT22;4517;49.020;12.066;2023-03-03T05:55:23;0.60;99.90
8965;DHT22;4517;49.020;12.066;2023-03-03T05:57:48;0.50;99.90
8965;DHT22;4517;49.020;12.066;2023-03-03T06:00:14;0.50;99.90
8965;DHT22;4517;49.020;12.066;2023-03-03T06:02:41;0.50;99.90
8965;DHT22;4517;49.020;12.066;2023-03-03T06:05:07;0.50;99.90
8965;DHT22;4517;49.020;12.066;2023-03-03T06:07:33;0.60;99.90
8965;DHT22;4517;49.020;12.066;2023-03-03T06:09:58;0.40;99.90
8965;DHT22;4517;49.020;12.066;2023-03-03T06:12:24;0.20;99.90
8965;DHT22;4517;49.020;12.066;2023-03-03T06:14:50;0.40;99.90
8965;DHT22;4517;49.020;12.066;2023-03-03T06:17:15;0.30;99.90
8965;DHT22;4517;49.020;12.066;2023-03-03T06:19:41;0.20;99.90
8965;DHT22;4517;49.020;12.066;2023-03-03T06:22:07;0.40;99.90
8965;DHT22;4517;49.020;12.066;2023-03-03T06:24:33;0.20;99.90
8965;DHT22;4517;49.020;12.066;2023-03-03T06:26:59;0.10;99.90
8965;DHT22;4517;49.020;12.066;2023-03-03T06:29:25;0.10;99.90
8965;DHT22;4517;49.020;12.066;2023-03-03T06:31:51;0.20;99.90
8965;DHT22;4517;49.020;12.066;2023-03-03T06:34:17;0.30;99.90
8965;DHT22;4517;49.020;12.066;2023-03-03T06:36:42;0.30;99.90
8965;DHT22;4517;49.020;12.066;2023-03-03T06:39:08;0.40;99.90
8965;DHT22;4517;49.020;12.066;2023-03-03T06:41:33;0.30;99.90
8965;DHT22;4517;49.020;12.066;2023-03-03T06:43:59;0.20;99.90
8965;DHT22;4517;49.020;12.066;2023-03-03T06:46:25;0.20;99.90
8965;DHT22;4517;49.020;12.066;2023-03-03T06:48:52;0.20;99.90
8965;DHT22;4517;49.020;12.066;2023-03-03T06:51:24;0.30;99.90
8965;DHT22;4517;49.020;12.066;2023-03-03T06:53:55;0.30;99.90
8965;DHT22;4517;49.020;12.066;2023-03-03T06:56:24;0.30;99.90
8965;DHT22;4517;49.020;12.066;2023-03-03T06:58:56;0.50;99.90
8965;DHT22;4517;49.020;12.066;2023-03-03T07:01:22;0.50;99.90
8965;DHT22;4517;49.020;12.066;2023-03-03T07:03:48;0.50;99.90
8965;DHT22;4517;49.020;12.066;2023-03-03T07:06:21;0.60;99.90
8965;DHT22;4517;49.020;12.066;2023-03-03T07:08:48;0.50;99.90
8965;DHT22;4517;49.020;12.066;2023-03-03T07:11:17;0.70;99.90
8965;DHT22;4517;49.020;12.066;2023-03-03T07:13:47;0.90;99.90
8965;DHT22;4517;49.020;12.066;2023-03-03T07:16:13;0.80;99.90
8965;DHT22;4517;49.020;12.066;2023-03-03T07:21:13;1.00;99.90
8965;DHT22;4517;49.020;12.066;2023-03-03T07:23:40;1.10;99.90
8965;DHT22;4517;49.020;12.066;2023-03-03T07:26:12;1.30;99.90
8965;DHT22;4517;49.020;12.066;2023-03-03T07:28:41;1.40;99.90
8965;DHT22;4517;49.020;12.066;2023-03-03T07:33:50;1.40;99.90
8965;DHT22;4517;49.020;12.066;2023-03-03T07:36:34;1.40;99.90
8965;DHT22;4517;49.020;12.066;2023-03-03T07:39:03;1.30;99.90
8965;DHT22;4517;49.020;12.066;2023-03-03T07:41:37;1.30;99.90
8965;DHT22;4517;49.020;12.066;2023-03-03T07:44:18;1.60;99.90
8965;DHT22;4517;49.020;12.066;2023-03-03T07:46:49;1.70;99.90
8965;DHT22;4517;49.020;12.066;2023-03-03T07:49:35;1.80;99.90
8965;DHT22;4517;49.020;12.066;2023-03-03T07:52:27;2.00;99.90
8965;DHT22;4517;49.020;12.066;2023-03-03T07:54:55;2.00;99.90
8965;DHT22;4517;49.020;12.066;2023-03-03T07:57:36;2.20;99.90
8965;DHT22;4517;49.020;12.066;2023-03-03T08:03:03;2.30;99.90
8965;DHT22;4517;49.020;12.066;2023-03-03T08:05:34;2.40;99.90
8965;DHT22;4517;49.020;12.066;2023-03-03T08:08:26;2.50;99.90
8965;DHT22;4517;49.020;12.066;2023-03-03T08:10:58;2.70;99.90
8965;DHT22;4517;49.020;12.066;2023-03-03T08:13:44;2.80;99.90
8965;DHT22;4517;49.020;12.066;2023-03-03T08:18:44;2.80;99.90
8965;DHT22;4517;49.020;12.066;2023-03-03T08:21:18;2.70;99.90
8965;DHT22;4517;49.020;12.066;2023-03-03T08:23:44;2.70;99.90
8965;DHT22;4517;49.020;12.066;2023-03-03T08:26:10;2.90;99.90
8965;DHT22;4517;49.020;12.066;2023-03-03T08:28:39;2.80;99.90
8965;DHT22;4517;49.020;12.066;2023-03-03T08:31:05;2.80;99.90
8965;DHT22;4517;49.020;12.066;2023-03-03T08:33:31;2.90;99.90
8965;DHT22;4517;49.020;12.066;2023-03-03T08:35:56;3.20;99.90
8965;DHT22;4517;49.020;12.066;2023-03-03T08:38:22;3.20;99.90
8965;DHT22;4517;49.020;12.066;2023-03-03T08:40:48;3.30;99.90
8965;DHT22;4517;49.020;12.066;2023-03-03T08:43:15;3.30;99.90
8965;DHT22;4517;49.020;12.066;2023-03-03T08:45:44;3.40;99.90
8965;DHT22;4517;49.020;12.066;2023-03-03T08:48:10;3.30;99.90
8965;DHT22;4517;49.020;12.066;2023-03-03T08:50:36;3.30;99.90
8965;DHT22;4517;49.020;12.066;2023-03-03T08:53:03;3.30;99.90
8965;DHT22;4517;49.020;12.066;2023-03-03T08:55:29;3.20;99.90
8965;DHT22;4517;49.020;12.066;2023-03-03T08:57:54;3.40;99.90
8965;DHT22;4517;49.020;12.066;2023-03-03T09:00:20;3.50;99.90
8965;DHT22;4517;49.020;12.066;2023-03-03T09:02:46;3.60;99.90
8965;DHT22;4517;49.020;12.066;2023-03-03T09:05:13;3.60;99.90
8965;DHT22;4517;49.020;12.066;2023-03-03T09:07:41;3.80;99.90
8965;DHT22;4517;49.020;12.066;2023-03-03T09:10:09;3.90;99.90
8965;DHT22;4517;49.020;12.066;2023-03-03T09:12:39;4.00;99.90
8965;DHT22;4517;49.020;12.066;2023-03-03T09:15:19;4.10;99.90
8965;DHT22;4517;49.020;12.066;2023-03-03T09:17:45;4.10;99.90
8965;DHT22;4517;49.020;12.066;2023-03-03T09:22:47;4.30;99.90
8965;DHT22;4517;49.020;12.066;2023-03-03T09:25:33;4.60;99.90
8965;DHT22;4517;49.020;12.066;2023-03-03T09:28:01;4.70;99.90
8965;DHT22;4517;49.020;12.066;2023-03-03T09:30:40;4.80;99.90
8965;DHT22;4517;49.020;12.066;2023-03-03T09:33:21;5.00;99.90
8965;DHT22;4517;49.020;12.066;2023-03-03T09:35:50;5.00;99.90
8965;DHT22;4517;49.020;12.066;2023-03-03T09:38:31;4.90;99.90
8965;DHT22;4517;49.020;12.066;2023-03-03T09:47:03;4.90;99.90
8965;DHT22;4517;49.020;12.066;2023-03-03T09:50:02;5.00;99.90
8965;DHT22;4517;49.020;12.066;2023-03-03T09:55:19;5.10;99.90
8965;DHT22;4517;49.020;12.066;2023-03-03T09:58:08;5.20;99.90
8965;DHT22;4517;49.020;12.066;2023-03-03T10:00:53;5.30;99.90
8965;DHT22;4517;49.020;12.066;2023-03-03T10:06:42;5.40;99.90
8965;DHT22;4517;49.020;12.066;2023-03-03T10:17:28;5.60;99.90
8965;DHT22;4517;49.020;12.066;2023-03-03T10:22:53;5.80;99.90
8965;DHT22;4517;49.020;12.066;2023-03-03T10:25:42;5.90;99.90
8965;DHT22;4517;49.020;12.066;2023-03-03T10:42:40;6.30;99.90
8965;DHT22;4517;49.020;12.066;2023-03-03T10:45:32;6.40;99.90
8965;DHT22;4517;49.020;12.066;2023-03-03T10:48:13;6.60;99.90
8965;DHT22;4517;49.020;12.066;2023-03-03T10:51:00;6.70;99.90
8965;DHT22;4517;49.020;12.066;2023-03-03T11:06:57;7.10;99.90
8965;DHT22;4517;49.020;12.066;2023-03-03T11:09:33;7.10;99.90
8965;DHT22;4517;49.020;12.066;2023-03-03T11:17:50;7.20;99.90
8965;DHT22;4517;49.020;12.066;2023-03-03T11:29:06;7.30;99.90
8965;DHT22;4517;49.020;12.066;2023-03-03T11:31:52;7.60;99.90
8965;DHT22;4517;49.020;12.066;2023-03-03T11:34:47;7.80;99.90
8965;DHT22;4517;49.020;12.066;2023-03-03T11:40:17;7.90;99.90
8965;DHT22;4517;49.020;12.066;2023-03-03T11:42:55;8.00;99.90
8965;DHT22;4517;49.020;12.066;2023-03-03T11:45:36;8.10;99.90
8965;DHT22;4517;49.020;12.066;2023-03-03T11:48:17;8.10;99.90
8965;DHT22;4517;49.020;12.066;2023-03-03T11:50:46;8.10;99.90
8965;DHT22;4517;49.020;12.066;2023-03-03T11:53:44;8.10;99.90
8965;DHT22;4517;49.020;12.066;2023-03-03T11:56:22;8.10;99.90
8965;DHT22;4517;49.020;12.066;2023-03-03T12:02:02;8.10;99.90
8965;DHT22;4517;49.020;12.066;2023-03-03T12:04:38;8.30;99.90
8965;DHT22;4517;49.020;12.066;2023-03-03T12:15:32;8.70;99.90
8965;DHT22;4517;49.020;12.066;2023-03-03T12:20:51;8.70;99.90
8965;DHT22;4517;49.020;12.066;2023-03-03T12:26:14;8.80;99.90
8965;DHT22;4517;49.020;12.066;2023-03-03T12:28:49;8.70;99.90
8965;DHT22;4517;49.020;12.066;2023-03-03T12:31:54;8.80;99.90
8965;DHT22;4517;49.020;12.066;2023-03-03T12:34:36;8.90;99.90
8965;DHT22;4517;49.020;12.066;2023-03-03T12:43:15;8.90;99.90
8965;DHT22;4517;49.020;12.066;2023-03-03T12:45:59;8.90;99.90
8965;DHT22;4517;49.020;12.066;2023-03-03T12:48:41;9.00;99.90
8965;DHT22;4517;49.020;12.066;2023-03-03T12:53:55;9.20;99.90
8965;DHT22;4517;49.020;12.066;2023-03-03T12:56:48;9.20;99.90
8965;DHT22;4517;49.020;12.066;2023-03-03T13:02:37;9.40;99.90
8965;DHT22;4517;49.020;12.066;2023-03-03T13:08:15;9.50;99.90
8965;DHT22;4517;49.020;12.066;2023-03-03T13:13:21;9.50;99.90
8965;DHT22;4517;49.020;12.066;2023-03-03T13:16:02;9.50;99.90
8965;DHT22;4517;49.020;12.066;2023-03-03T13:21:32;9.70;99.90
8965;DHT22;4517;49.020;12.066;2023-03-03T13:24:21;9.90;99.90
8965;DHT22;4517;49.020;12.066;2023-03-03T13:26:58;9.90;99.90
8965;DHT22;4517;49.020;12.066;2023-03-03T13:29:32;10.00;99.90
8965;DHT22;4517;49.020;12.066;2023-03-03T13:32:03;9.90;99.90
8965;DHT22;4517;49.020;12.066;2023-03-03T13:34:42;9.70;99.90
8965;DHT22;4517;49.020;12.066;2023-03-03T13:37:23;9.70;99.90
8965;DHT22;4517;49.020;12.066;2023-03-03T13:39:53;9.90;99.90
8965;DHT22;4517;49.020;12.066;2023-03-03T13:42:32;9.80;99.90
8965;DHT22;4517;49.020;12.066;2023-03-03T13:45:04;9.80;99.90
8965;DHT22;4517;49.020;12.066;2023-03-03T13:50:22;9.90;99.90
8965;DHT22;4517;49.020;12.066;2023-03-03T13:53:19;10.10;99.90
8965;DHT22;4517;49.020;12.066;2023-03-03T13:59:25;10.00;99.90
8965;DHT22;4517;49.020;12.066;2023-03-03T14:11:48;10.00;99.90
8965;DHT22;4517;49.020;12.066;2023-03-03T14:14:32;10.10;99.90
8965;DHT22;4517;49.020;12.066;2023-03-03T14:17:22;10.20;99.90
8965;DHT22;4517;49.020;12.066;2023-03-03T14:26:09;10.30;99.90
8965;DHT22;4517;49.020;12.066;2023-03-03T14:28:50;10.20;99.90
8965;DHT22;4517;49.020;12.066;2023-03-03T14:31:24;10.10;99.90
8965;DHT22;4517;49.020;12.066;2023-03-03T14:37:28;10.10;99.90
8965;DHT22;4517;49.020;12.066;2023-03-03T14:40:11;10.30;99.90
8965;DHT22;4517;49.020;12.066;2023-03-03T14:42:59;10.30;99.90
8965;DHT22;4517;49.020;12.066;2023-03-03T14:45:36;10.20;99.90
8965;DHT22;4517;49.020;12.066;2023-03-03T14:48:18;10.30;99.90
8965;DHT22;4517;49.020;12.066;2023-03-03T14:55:48;10.20;99.90
8965;DHT22;4517;49.020;12.066;2023-03-03T14:58:30;10.00;99.90
8965;DHT22;4517;49.020;12.066;2023-03-03T15:01:34;9.90;99.90
8965;DHT22;4517;49.020;12.066;2023-03-03T15:06:46;10.30;99.90
8965;DHT22;4517;49.020;12.066;2023-03-03T15:09:37;10.10;99.90
8965;DHT22;4517;49.020;12.066;2023-03-03T15:12:20;10.20;99.90
8965;DHT22;4517;49.020;12.066;2023-03-03T15:14:49;10.20;99.90
8965;DHT22;4517;49.020;12.066;2023-03-03T15:22:54;10.10;99.90
8965;DHT22;4517;49.020;12.066;2023-03-03T15:31:20;10.10;99.90
8965;DHT22;4517;49.020;12.066;2023-03-03T15:34:15;9.90;99.90
8965;DHT22;4517;49.020;12.066;2023-03-03T15:36:54;9.70;99.90
8965;DHT22;4517;49.020;12.066;2023-03-03T15:39:48;9.60;99.90
8965;DHT22;4517;49.020;12.066;2023-03-03T15:42:28;9.60;99.90
8965;DHT22;4517;49.020;12.066;2023-03-03T15:48:04;9.50;99.90
8965;DHT22;4517;49.020;12.066;2023-03-03T15:56:14;9.70;99.90
8965;DHT22;4517;49.020;12.066;2023-03-03T16:01:40;9.40;99.90
8965;DHT22;4517;49.020;12.066;2023-03-03T16:04:19;9.30;99.90
8965;DHT22;4517;49.020;12.066;2023-03-03T16:22:46;8.90;99.90
8965;DHT22;4517;49.020;12.066;2023-03-03T16:25:37;8.90;99.90
8965;DHT22;4517;49.020;12.066;2023-03-03T16:38:36;8.60;99.90
8965;DHT22;4517;49.020;12.066;2023-03-03T16:41:06;8.40;99.90
8965;DHT22;4517;49.020;12.066;2023-03-03T16:43:48;8.20;99.90
8965;DHT22;4517;49.020;12.066;2023-03-03T16:46:40;8.00;99.90
8965;DHT22;4517;49.020;12.066;2023-03-03T16:49:24;7.90;99.90
8965;DHT22;4517;49.020;12.066;2023-03-03T16:52:08;7.70;99.90
8965;DHT22;4517;49.020;12.066;2023-03-03T16:54:43;7.50;99.90
8965;DHT22;4517;49.020;12.066;2023-03-03T16:57:29;7.40;99.90
8965;DHT22;4517;49.020;12.066;2023-03-03T17:00:12;7.30;99.90
8965;DHT22;4517;49.020;12.066;2023-03-03T17:02:51;7.10;99.90
8965;DHT22;4517;49.020;12.066;2023-03-03T17:11:28;6.50;99.90
8965;DHT22;4517;49.020;12.066;2023-03-03T17:17:13;6.50;99.90
8965;DHT22;4517;49.020;12.066;2023-03-03T17:28:11;6.10;99.90
8965;DHT22;4517;49.020;12.066;2023-03-03T17:36:10;6.30;99.90
8965;DHT22;4517;49.020;12.066;2023-03-03T17:38:54;6.30;99.90
8965;DHT22;4517;49.020;12.066;2023-03-03T17:44:36;6.10;99.90
8965;DHT22;4517;49.020;12.066;2023-03-03T17:47:12;5.70;99.90
8965;DHT22;4517;49.020;12.066;2023-03-03T17:49:56;5.40;99.90
8965;DHT22;4517;49.020;12.066;2023-03-03T17:52:45;5.10;99.90
8965;DHT22;4517;49.020;12.066;2023-03-03T17:55:21;5.00;99.90
8965;DHT22;4517;49.020;12.066;2023-03-03T18:03:31;4.50;99.90
8965;DHT22;4517;49.020;12.066;2023-03-03T18:06:20;4.50;99.90
8965;DHT22;4517;49.020;12.066;2023-03-03T18:08:54;4.40;99.90
8965;DHT22;4517;49.020;12.066;2023-03-03T18:14:12;4.40;99.90
8965;DHT22;4517;49.020;12.066;2023-03-03T18:20:09;4.30;99.90
8965;DHT22;4517;49.020;12.066;2023-03-03T18:22:51;4.30;99.90
8965;DHT22;4517;49.020;12.066;2023-03-03T18:25:19;4.30;99.90
8965;DHT22;4517;49.020;12.066;2023-03-03T18:28:14;4.20;99.90
8965;DHT22;4517;49.020;12.066;2023-03-03T18:33:15;4.30;99.90
8965;DHT22;4517;49.020;12.066;2023-03-03T18:35:45;4.20;99.90
8965;DHT22;4517;49.020;12.066;2023-03-03T18:38:31;4.10;99.90
8965;DHT22;4517;49.020;12.066;2023-03-03T18:41:04;4.10;99.90
8965;DHT22;4517;49.020;12.066;2023-03-03T18:46:11;4.20;99.90
8965;DHT22;4517;49.020;12.066;2023-03-03T18:49:04;4.10;99.90
8965;DHT22;4517;49.020;12.066;2023-03-03T18:54:04;3.90;99.90
8965;DHT22;4517;49.020;12.066;2023-03-03T18:56:46;3.80;99.90
8965;DHT22;4517;49.020;12.066;2023-03-03T19:04:51;3.60;99.90
8965;DHT22;4517;49.020;12.066;2023-03-03T19:08:03;3.70;99.90
8965;DHT22;4517;49.020;12.066;2023-03-03T19:16:00;4.10;99.90
8965;DHT22;4517;49.020;12.066;2023-03-03T19:18:34;4.10;99.90
8965;DHT22;4517;49.020;12.066;2023-03-03T19:24:02;4.10;99.90
8965;DHT22;4517;49.020;12.066;2023-03-03T19:29:33;3.90;99.90
8965;DHT22;4517;49.020;12.066;2023-03-03T19:35:19;4.00;99.90
8965;DHT22;4517;49.020;12.066;2023-03-03T19:37:54;3.90;99.90
8965;DHT22;4517;49.020;12.066;2023-03-03T19:40:36;3.80;99.90
8965;DHT22;4517;49.020;12.066;2023-03-03T19:46:16;3.60;99.90
8965;DHT22;4517;49.020;12.066;2023-03-03T19:56:53;3.00;99.90
8965;DHT22;4517;49.020;12.066;2023-03-03T20:02:37;3.00;99.90
8965;DHT22;4517;49.020;12.066;2023-03-03T20:05:33;2.90;99.90
8965;DHT22;4517;49.020;12.066;2023-03-03T20:08:10;2.80;99.90
8965;DHT22;4517;49.020;12.066;2023-03-03T20:10:49;2.60;99.90
8965;DHT22;4517;49.020;12.066;2023-03-03T20:16:24;3.20;99.90
8965;DHT22;4517;49.020;12.066;2023-03-03T20:19:23;3.10;99.90
8965;DHT22;4517;49.020;12.066;2023-03-03T20:22:10;3.00;99.90
8965;DHT22;4517;49.020;12.066;2023-03-03T20:24:47;3.20;99.90
8965;DHT22;4517;49.020;12.066;2023-03-03T20:36:48;3.60;99.90
8965;DHT22;4517;49.020;12.066;2023-03-03T20:42:31;3.70;99.90
8965;DHT22;4517;49.020;12.066;2023-03-03T20:51:02;3.50;99.90
8965;DHT22;4517;49.020;12.066;2023-03-03T20:53:42;3.60;99.90
8965;DHT22;4517;49.020;12.066;2023-03-03T20:56:20;3.80;99.90
8965;DHT22;4517;49.020;12.066;2023-03-03T20:59:22;3.80;99.90
8965;DHT22;4517;49.020;12.066;2023-03-03T21:04:40;3.70;99.90
8965;DHT22;4517;49.020;12.066;2023-03-03T21:07:06;3.60;99.90
8965;DHT22;4517;49.020;12.066;2023-03-03T21:09:34;3.30;99.90
8965;DHT22;4517;49.020;12.066;2023-03-03T21:12:09;3.20;99.90
8965;DHT22;4517;49.020;12.066;2023-03-03T21:14:35;2.90;99.90
8965;DHT22;4517;49.020;12.066;2023-03-03T21:17:28;2.70;99.90
8965;DHT22;4517;49.020;12.066;2023-03-03T21:19:54;2.50;99.90
8965;DHT22;4517;49.020;12.066;2023-03-03T21:22:19;2.20;99.90
8965;DHT22;4517;49.020;12.066;2023-03-03T21:24:53;2.00;99.90
8965;DHT22;4517;49.020;12.066;2023-03-03T21:27:24;2.20;99.90
8965;DHT22;4517;49.020;12.066;2023-03-03T21:30:03;2.60;99.90
8965;DHT22;4517;49.020;12.066;2023-03-03T21:32:46;2.60;99.90
8965;DHT22;4517;49.020;12.066;2023-03-03T21:35:18;2.50;99.90
8965;DHT22;4517;49.020;12.066;2023-03-03T21:40:28;2.50;99.90
8965;DHT22;4517;49.020;12.066;2023-03-03T21:42:56;2.40;99.90
8965;DHT22;4517;49.020;12.066;2023-03-03T21:45:22;2.50;99.90
8965;DHT22;4517;49.020;12.066;2023-03-03T21:47:49;2.60;99.90
8965;DHT22;4517;49.020;12.066;2023-03-03T21:50:16;2.60;99.90
8965;DHT22;4517;49.020;12.066;2023-03-03T21:52:44;2.60;99.90
8965;DHT22;4517;49.020;12.066;2023-03-03T21:55:10;2.40;99.90
8965;DHT22;4517;49.020;12.066;2023-03-03T21:57:36;2.50;99.90